createdAt,value
2022-10-19T00:00:32.655Z,100.00
2022-10-19T00:02:59.020Z,100.00
2022-10-19T00:05:25.593Z,100.00
2022-10-19T00:07:51.969Z,100.00
2022-10-19T00:10:18.411Z,100.00
2022-10-19T00:12:44.817Z,100.00
2022-10-19T00:15:11.265Z,100.00
2022-10-19T00:17:39.618Z,100.00
2022-10-19T00:20:06.315Z,100.00
2022-10-19T00:22:33.047Z,100.00
2022-10-19T00:24:59.677Z,100.00
2022-10-19T00:27:26.109Z,100.00
2022-10-19T00:29:52.470Z,100.00
2022-10-19T00:32:19.758Z,100.00
2022-10-19T00:34:46.159Z,100.00
2022-10-19T00:37:12.532Z,99.21
2022-10-19T00:39:39.377Z,99.37
2022-10-19T00:42:05.922Z,99.25
2022-10-19T00:44:32.272Z,99.46
2022-10-19T00:47:02.157Z,99.71
2022-10-19T00:49:33.217Z,99.45
2022-10-19T00:52:14.611Z,99.92
2022-10-19T00:54:43.946Z,100.00
2022-10-19T00:57:11.564Z,100.00
2022-10-19T00:59:42.321Z,100.00
2022-10-19T01:02:09.140Z,100.00
2022-10-19T01:04:38.311Z,100.00
2022-10-19T01:07:06.769Z,100.00
2022-10-19T01:09:33.210Z,100.00
2022-10-19T01:12:10.836Z,100.00
2022-10-19T01:14:44.452Z,100.00
2022-10-19T01:17:44.689Z,100.00
2022-10-19T01:20:41.741Z,99.83
2022-10-19T01:23:17.159Z,99.78
2022-10-19T01:25:46.181Z,100.00
2022-10-19T01:28:43.635Z,99.74
2022-10-19T01:31:19.038Z,100.00
2022-10-19T01:34:03.536Z,100.00
2022-10-19T01:36:46.613Z,100.00
2022-10-19T01:39:38.356Z,99.94
2022-10-19T01:42:12.244Z,100.00
2022-10-19T01:44:48.009Z,99.66
2022-10-19T01:47:27.391Z,100.00
2022-10-19T01:49:59.010Z,100.00
2022-10-19T01:52:27.098Z,100.00
2022-10-19T01:54:59.451Z,100.00
2022-10-19T01:57:32.067Z,100.00
2022-10-19T01:59:58.632Z,100.00
2022-10-19T02:02:27.872Z,100.00
2022-10-19T02:04:57.246Z,100.00
2022-10-19T02:07:25.034Z,100.00
2022-10-19T02:09:51.482Z,100.00
2022-10-19T02:12:20.332Z,99.34
2022-10-19T02:14:51.910Z,100.00
2022-10-19T02:17:24.048Z,99.53
2022-10-19T02:19:50.908Z,99.82
2022-10-19T02:22:17.584Z,98.95
2022-10-19T02:24:44.056Z,99.50
2022-10-19T02:27:11.269Z,100.00
2022-10-19T02:29:39.745Z,99.60
2022-10-19T02:32:07.126Z,100.00
2022-10-19T02:34:35.151Z,100.00
2022-10-19T02:37:02.042Z,100.00
2022-10-19T02:39:28.645Z,100.00
2022-10-19T02:42:07.207Z,100.00
2022-10-19T02:44:47.205Z,100.00
2022-10-19T02:47:18.460Z,100.00
2022-10-19T02:49:46.557Z,100.00
2022-10-19T02:52:13.980Z,100.00
2022-10-19T02:54:43.728Z,100.00
2022-10-19T02:57:22.109Z,99.95
2022-10-19T02:59:49.071Z,99.85
2022-10-19T03:02:17.033Z,99.89
2022-10-19T03:07:17.389Z,99.38
2022-10-19T03:09:44.427Z,98.92
2022-10-19T03:12:12.572Z,99.39
2022-10-19T03:14:39.236Z,98.66
2022-10-19T03:17:05.654Z,99.03
2022-10-19T03:19:32.428Z,98.90
2022-10-19T03:21:58.800Z,99.49
2022-10-19T03:24:25.265Z,99.45
2022-10-19T03:26:51.820Z,99.71
2022-10-19T03:29:18.279Z,99.51
2022-10-19T03:31:44.656Z,99.65
2022-10-19T03:34:11.053Z,99.52
2022-10-19T03:36:39.592Z,99.70
2022-10-19T03:39:10.175Z,99.67
2022-10-19T03:41:37.581Z,100.00
2022-10-19T03:44:05.259Z,100.00
2022-10-19T03:46:32.648Z,100.00
2022-10-19T03:48:59.080Z,100.00
2022-10-19T03:51:27.760Z,100.00
2022-10-19T03:53:58.455Z,100.00
2022-10-19T03:56:27.700Z,100.00
2022-10-19T03:58:55.916Z,100.00
2022-10-19T04:01:34.490Z,100.00
2022-10-19T04:04:03.643Z,100.00
2022-10-19T04:06:32.918Z,100.00
2022-10-19T04:08:59.835Z,99.68
2022-10-19T04:11:29.089Z,98.97
2022-10-19T04:13:57.259Z,99.07
2022-10-19T04:16:27.796Z,99.38
2022-10-19T04:18:54.826Z,99.20
2022-10-19T04:21:21.188Z,99.54
2022-10-19T04:23:47.868Z,98.86
2022-10-19T04:26:14.678Z,99.29
2022-10-19T04:28:41.250Z,99.32
2022-10-19T04:31:07.723Z,100.00
2022-10-19T04:33:34.774Z,99.71
2022-10-19T04:36:03.463Z,99.31
2022-10-19T04:38:30.045Z,98.90
2022-10-19T04:41:02.287Z,98.67
2022-10-19T04:43:29.018Z,98.82
2022-10-19T04:45:55.541Z,99.56
2022-10-19T04:48:21.977Z,99.69
2022-10-19T04:50:48.444Z,100.00
2022-10-19T04:53:14.841Z,100.00
2022-10-19T04:55:42.282Z,100.00
2022-10-19T04:58:09.001Z,100.00
2022-10-19T05:00:38.482Z,100.00
2022-10-19T05:03:05.107Z,100.00
2022-10-19T05:05:33.443Z,99.53
2022-10-19T05:08:00.006Z,98.98
2022-10-19T05:10:26.859Z,98.60
2022-10-19T05:12:53.640Z,98.90
2022-10-19T05:15:20.412Z,99.03
2022-10-19T05:17:46.839Z,99.18
2022-10-19T05:20:13.212Z,99.57
2022-10-19T05:22:40.218Z,99.57
2022-10-19T05:25:07.483Z,99.50
2022-10-19T05:27:34.196Z,100.00
2022-10-19T05:30:00.800Z,99.65
2022-10-19T05:32:28.534Z,100.00
2022-10-19T05:34:54.968Z,100.00
2022-10-19T05:37:21.652Z,100.00
2022-10-19T05:39:48.142Z,100.00
2022-10-19T05:42:14.674Z,100.00
2022-10-19T05:44:41.132Z,100.00
2022-10-19T05:47:07.563Z,100.00
2022-10-19T05:49:34.122Z,100.00
2022-10-19T05:52:00.564Z,100.00
2022-10-19T05:54:28.533Z,100.00
2022-10-19T05:56:55.375Z,100.00
2022-10-19T05:59:22.184Z,99.84
2022-10-19T06:01:48.998Z,99.89
2022-10-19T06:06:47.326Z,99.28
2022-10-19T06:09:13.996Z,98.95
2022-10-19T06:11:41.748Z,99.14
2022-10-19T06:14:12.376Z,99.26
2022-10-19T06:16:38.941Z,97.82
2022-10-19T06:19:07.153Z,97.66
2022-10-19T06:21:38.612Z,98.05
2022-10-19T06:24:06.569Z,98.74
2022-10-19T06:26:35.578Z,98.54
2022-10-19T06:29:03.203Z,98.32
2022-10-19T06:31:34.944Z,97.60
2022-10-19T06:34:01.787Z,96.84
2022-10-19T06:36:31.561Z,97.38
2022-10-19T06:38:59.762Z,98.05
2022-10-19T06:41:26.608Z,98.00
2022-10-19T06:43:54.467Z,97.47
2022-10-19T06:46:23.467Z,97.07
2022-10-19T06:48:55.125Z,96.70
2022-10-19T06:51:22.456Z,96.63
2022-10-19T06:53:54.205Z,95.69
2022-10-19T06:56:24.394Z,95.09
2022-10-19T06:58:50.948Z,92.28
2022-10-19T07:01:18.332Z,92.68
2022-10-19T07:03:44.791Z,89.18
2022-10-19T07:06:12.883Z,86.36
2022-10-19T07:08:41.601Z,84.43
2022-10-19T07:11:12.317Z,82.53
2022-10-19T07:13:39.129Z,83.10
2022-10-19T07:16:15.874Z,81.02
2022-10-19T07:18:46.955Z,82.37
2022-10-19T07:21:15.422Z,86.43
2022-10-19T07:23:43.599Z,90.97
2022-10-19T07:26:19.450Z,91.62
2022-10-19T07:28:47.329Z,92.70
2022-10-19T07:31:17.825Z,91.34
2022-10-19T07:33:44.982Z,89.97
2022-10-19T07:36:13.223Z,90.85
2022-10-19T07:38:40.441Z,90.51
2022-10-19T07:41:09.744Z,89.20
2022-10-19T07:43:36.324Z,88.34
2022-10-19T07:46:05.691Z,88.22
2022-10-19T07:48:32.626Z,88.58
2022-10-19T07:51:01.401Z,87.98
2022-10-19T07:53:28.435Z,86.64
2022-10-19T07:55:55.060Z,85.02
2022-10-19T07:58:21.505Z,84.42
2022-10-19T08:00:47.999Z,84.02
2022-10-19T08:06:03.360Z,81.49
2022-10-19T08:08:30.151Z,80.59
2022-10-19T08:10:56.957Z,80.06
2022-10-19T08:13:24.075Z,82.84
2022-10-19T08:15:50.530Z,84.48
2022-10-19T08:18:18.356Z,84.96
2022-10-19T08:20:44.962Z,83.90
2022-10-19T08:23:11.556Z,83.23
2022-10-19T08:25:37.933Z,81.51
2022-10-19T08:28:04.445Z,79.11
2022-10-19T08:30:31.175Z,78.49
2022-10-19T08:32:57.582Z,76.95
2022-10-19T08:35:24.010Z,76.26
2022-10-19T08:37:50.720Z,75.41
2022-10-19T08:40:22.710Z,75.23
2022-10-19T08:43:04.227Z,75.09
2022-10-19T08:48:32.981Z,78.32
2022-10-19T08:51:00.765Z,78.49
2022-10-19T08:53:37.256Z,79.31
2022-10-19T08:56:49.419Z,78.33
2022-10-19T08:59:28.490Z,78.44
2022-10-19T09:02:04.834Z,81.16
2022-10-19T09:04:36.651Z,81.34
2022-10-19T09:07:24.594Z,81.62
2022-10-19T09:10:14.612Z,81.68
2022-10-19T09:12:47.914Z,81.30
2022-10-19T09:15:42.299Z,82.39
2022-10-19T09:18:18.467Z,80.35
2022-10-19T09:20:48.724Z,79.78
2022-10-19T09:23:47.673Z,80.46
2022-10-19T09:26:20.180Z,79.30
2022-10-19T09:29:12.740Z,77.60
2022-10-19T09:31:43.322Z,77.57
2022-10-19T09:34:26.630Z,81.10
2022-10-19T09:36:58.782Z,79.38
2022-10-19T09:39:29.344Z,79.92
2022-10-19T09:42:16.364Z,79.09
2022-10-19T09:44:42.780Z,77.49
2022-10-19T09:47:18.229Z,76.45
2022-10-19T09:49:48.121Z,67.77
2022-10-19T09:52:41.895Z,63.18
2022-10-19T09:55:14.479Z,65.08
2022-10-19T09:57:48.850Z,67.32
2022-10-19T10:00:24.361Z,64.72
2022-10-19T10:02:55.242Z,61.32
2022-10-19T10:05:34.749Z,61.46
2022-10-19T10:08:01.517Z,59.63
2022-10-19T10:10:32.458Z,58.71
2022-10-19T10:13:00.317Z,56.02
2022-10-19T10:15:30.617Z,54.38
2022-10-19T10:17:58.238Z,52.37
2022-10-19T10:20:28.303Z,53.30
2022-10-19T10:23:06.142Z,51.52
2022-10-19T10:25:36.317Z,48.67
2022-10-19T10:28:19.811Z,42.88
2022-10-19T10:30:48.260Z,39.59
2022-10-19T10:33:43.852Z,36.68
2022-10-19T10:36:12.474Z,34.72
2022-10-19T10:38:44.980Z,33.36
2022-10-19T10:41:15.882Z,32.28
2022-10-19T10:44:04.575Z,31.88
2022-10-19T10:46:38.076Z,31.44
2022-10-19T10:49:07.524Z,33.97
2022-10-19T10:51:36.949Z,35.10
2022-10-19T10:54:22.609Z,32.72
2022-10-19T10:57:06.718Z,31.05
2022-10-19T10:59:45.755Z,30.81
2022-10-19T11:02:39.958Z,30.77
2022-10-19T11:05:32.117Z,31.63
2022-10-19T11:08:23.885Z,31.21
2022-10-19T11:11:14.011Z,29.38
2022-10-19T11:13:47.748Z,30.26
2022-10-19T11:16:16.518Z,29.15
2022-10-19T11:18:52.278Z,29.94
2022-10-19T11:21:46.758Z,30.42
2022-10-19T11:24:13.190Z,29.66
2022-10-19T11:26:39.637Z,29.65
2022-10-19T11:29:53.774Z,29.99
2022-10-19T11:32:46.100Z,28.51
2022-10-19T11:35:27.930Z,28.61
2022-10-19T11:38:36.034Z,29.79
2022-10-19T11:41:20.433Z,27.96
2022-10-19T11:44:01.038Z,27.72
2022-10-19T11:46:47.564Z,27.86
2022-10-19T11:49:41.131Z,28.53
2022-10-19T11:52:22.367Z,28.66
2022-10-19T11:54:58.792Z,29.69
2022-10-19T11:57:31.347Z,29.03
2022-10-19T12:00:33.888Z,30.58
2022-10-19T12:03:18.288Z,29.99
2022-10-19T12:06:00.859Z,29.28
2022-10-19T12:08:30.294Z,29.93
2022-10-19T12:11:08.756Z,32.57
2022-10-19T12:13:50.001Z,36.15
2022-10-19T12:16:18.479Z,38.41
2022-10-19T12:18:50.118Z,38.74
2022-10-19T12:21:29.220Z,39.25
2022-10-19T12:23:58.878Z,40.30
2022-10-19T12:26:29.026Z,41.88
2022-10-19T12:29:12.452Z,40.38
2022-10-19T12:31:39.096Z,42.00
2022-10-19T12:34:20.583Z,41.73
2022-10-19T12:37:00.734Z,41.22
2022-10-19T12:39:58.430Z,38.70
2022-10-19T12:42:41.695Z,37.60
2022-10-19T12:45:35.712Z,39.73
2022-10-19T12:48:08.127Z,40.20
2022-10-19T12:50:49.936Z,39.86
2022-10-19T12:53:49.126Z,38.56
2022-10-19T12:56:20.725Z,36.21
2022-10-19T12:58:53.044Z,37.93
2022-10-19T13:01:27.246Z,37.04
2022-10-19T13:04:15.242Z,34.76
2022-10-19T13:07:00.142Z,32.14
2022-10-19T13:09:31.763Z,31.35
2022-10-19T13:12:14.786Z,36.17
2022-10-19T13:14:54.514Z,39.80
2022-10-19T13:17:36.158Z,43.80
2022-10-19T13:20:14.839Z,45.28
2022-10-19T13:22:45.636Z,47.20
2022-10-19T13:25:26.905Z,44.36
2022-10-19T13:28:06.621Z,43.60
2022-10-19T13:30:36.226Z,42.96
2022-10-19T13:33:31.326Z,43.98
2022-10-19T13:36:00.627Z,44.51
2022-10-19T13:38:29.428Z,46.29
2022-10-19T13:40:58.041Z,48.59
2022-10-19T13:43:29.768Z,49.86
2022-10-19T13:46:11.865Z,51.43
2022-10-19T13:48:49.964Z,52.63
2022-10-19T13:51:37.439Z,53.00
2022-10-19T13:54:22.721Z,53.97
2022-10-19T13:57:04.288Z,56.44
2022-10-19T13:59:57.767Z,56.03
2022-10-19T14:03:05.390Z,59.19
2022-10-19T14:05:50.810Z,61.75
2022-10-19T14:08:38.467Z,61.13
2022-10-19T14:11:14.278Z,61.08
2022-10-19T14:13:40.746Z,60.70
2022-10-19T14:16:07.270Z,61.29
2022-10-19T14:18:36.352Z,63.13
2022-10-19T14:21:08.973Z,64.23
2022-10-19T14:23:40.029Z,64.58
2022-10-19T14:26:06.691Z,65.49
2022-10-19T14:28:34.041Z,66.05
2022-10-19T14:31:03.225Z,66.44
2022-10-19T14:33:35.325Z,66.14
2022-10-19T14:36:02.498Z,66.58
2022-10-19T14:38:38.271Z,66.87
2022-10-19T14:41:17.192Z,66.05
2022-10-19T14:43:43.579Z,66.39
2022-10-19T14:46:16.586Z,67.06
2022-10-19T14:48:48.691Z,67.63
2022-10-19T14:51:32.822Z,67.58
2022-10-19T14:54:11.367Z,68.58
2022-10-19T14:56:40.850Z,68.06
2022-10-19T14:59:20.205Z,67.91
2022-10-19T15:01:56.719Z,68.21
2022-10-19T15:04:27.456Z,66.84
2022-10-19T15:06:55.166Z,67.22
2022-10-19T15:09:37.671Z,67.85
2022-10-19T15:12:17.300Z,67.97
2022-10-19T15:14:45.736Z,68.48
2022-10-19T15:17:51.151Z,68.93
2022-10-19T15:20:49.305Z,69.08
2022-10-19T15:23:42.972Z,69.38
2022-10-19T15:26:17.119Z,70.56
2022-10-19T15:28:44.676Z,70.32
2022-10-19T15:31:31.406Z,71.22
2022-10-19T15:34:00.594Z,72.06
2022-10-19T15:36:29.419Z,72.24
2022-10-19T15:39:06.416Z,72.07
2022-10-19T15:41:44.808Z,73.11
2022-10-19T15:44:41.985Z,74.14
2022-10-19T15:47:20.248Z,74.69
2022-10-19T15:49:46.961Z,74.85
2022-10-19T15:52:15.503Z,75.33
2022-10-19T15:54:42.821Z,74.86
2022-10-19T15:57:26.068Z,75.61
2022-10-19T15:59:53.740Z,75.97
2022-10-19T16:02:20.152Z,76.82
2022-10-19T16:04:46.737Z,76.61
2022-10-19T16:07:20.949Z,76.56
2022-10-19T16:09:47.346Z,77.88
2022-10-19T16:12:13.748Z,78.54
2022-10-19T16:14:40.305Z,79.00
2022-10-19T16:17:06.754Z,79.09
2022-10-19T16:19:33.234Z,79.08
2022-10-19T16:21:59.731Z,79.23
2022-10-19T16:24:26.207Z,79.39
2022-10-19T16:26:52.636Z,79.49
2022-10-19T16:29:19.036Z,79.89
2022-10-19T16:31:45.473Z,80.44
2022-10-19T16:34:11.976Z,81.58
2022-10-19T16:36:38.463Z,81.58
2022-10-19T16:39:04.976Z,82.94
2022-10-19T16:41:32.018Z,82.96
2022-10-19T16:43:58.551Z,82.09
2022-10-19T16:46:25.800Z,82.33
2022-10-19T16:48:53.054Z,81.22
2022-10-19T16:51:27.621Z,80.57
2022-10-19T16:53:59.475Z,80.11
2022-10-19T16:56:28.538Z,80.29
2022-10-19T16:59:06.340Z,80.76
2022-10-19T17:01:35.044Z,81.40
2022-10-19T17:04:01.679Z,82.00
2022-10-19T17:06:28.792Z,81.60
2022-10-19T17:11:43.975Z,82.47
2022-10-19T17:14:12.232Z,82.12
2022-10-19T17:16:39.058Z,83.28
2022-10-19T17:19:07.298Z,84.13
2022-10-19T17:21:38.468Z,85.11
2022-10-19T17:24:08.314Z,85.21
2022-10-19T17:26:38.131Z,84.82
2022-10-19T17:29:05.809Z,84.83
2022-10-19T17:31:32.632Z,84.83
2022-10-19T17:34:00.744Z,84.99
2022-10-19T17:36:29.725Z,85.44
2022-10-19T17:38:58.653Z,85.89
2022-10-19T17:41:25.840Z,85.82
2022-10-19T17:43:53.452Z,86.77
2022-10-19T17:46:22.618Z,86.57
2022-10-19T17:48:49.352Z,87.14
2022-10-19T17:51:23.592Z,86.58
2022-10-19T17:53:50.845Z,86.54
2022-10-19T17:56:19.957Z,86.68
2022-10-19T17:58:47.268Z,85.95
2022-10-19T18:01:15.403Z,85.16
2022-10-19T18:03:41.989Z,85.93
2022-10-19T18:06:10.900Z,86.00
2022-10-19T18:08:40.541Z,86.14
2022-10-19T18:11:16.472Z,85.46
2022-10-19T18:13:43.509Z,85.57
2022-10-19T18:16:12.814Z,85.63
2022-10-19T18:18:41.698Z,85.61
2022-10-19T18:21:11.413Z,85.06
2022-10-19T18:23:38.292Z,86.68
2022-10-19T18:26:10.892Z,86.27
2022-10-19T18:28:37.985Z,86.30
2022-10-19T18:31:16.043Z,86.53
2022-10-19T18:33:42.854Z,86.68
2022-10-19T18:36:10.692Z,87.33
2022-10-19T18:38:38.584Z,87.29
2022-10-19T18:43:49.522Z,88.00
2022-10-19T18:46:18.535Z,88.12
2022-10-19T18:48:45.872Z,89.06
2022-10-19T18:51:13.055Z,89.34
2022-10-19T18:53:39.507Z,90.32
2022-10-19T18:56:08.302Z,90.83
2022-10-19T18:58:35.856Z,90.46
2022-10-19T19:01:07.021Z,90.50
2022-10-19T19:03:34.099Z,91.14
2022-10-19T19:06:04.973Z,91.29
2022-10-19T19:08:32.294Z,90.96
2022-10-19T19:11:11.113Z,91.80
2022-10-19T19:13:38.403Z,91.86
2022-10-19T19:16:05.620Z,91.59
2022-10-19T19:18:34.047Z,91.50
2022-10-19T19:21:02.189Z,92.32
2022-10-19T19:23:29.532Z,92.38
2022-10-19T19:25:57.093Z,92.58
2022-10-19T19:28:23.632Z,93.15
2022-10-19T19:30:50.148Z,92.53
2022-10-19T19:33:16.580Z,92.69
2022-10-19T19:35:47.720Z,92.74
2022-10-19T19:38:15.467Z,93.60
2022-10-19T19:40:44.632Z,95.00
2022-10-19T19:43:12.402Z,95.26
2022-10-19T19:45:39.437Z,93.99
2022-10-19T19:48:07.083Z,93.65
2022-10-19T19:50:34.832Z,94.00
2022-10-19T19:53:04.797Z,93.89
2022-10-19T19:55:36.765Z,94.45
2022-10-19T19:58:05.423Z,94.11
2022-10-19T20:00:31.894Z,94.06
2022-10-19T20:02:59.310Z,94.26
2022-10-19T20:05:26.578Z,93.31
2022-10-19T20:07:53.005Z,93.33
2022-10-19T20:10:19.549Z,93.17
2022-10-19T20:12:47.240Z,94.63
2022-10-19T20:15:15.664Z,94.05
2022-10-19T20:17:42.570Z,94.34
2022-10-19T20:20:10.322Z,94.00
2022-10-19T20:22:37.022Z,94.12
2022-10-19T20:25:04.754Z,94.56
2022-10-19T20:27:35.034Z,94.63
2022-10-19T20:30:01.712Z,93.96
2022-10-19T20:32:29.127Z,93.69
2022-10-19T20:34:55.614Z,93.76
2022-10-19T20:37:22.238Z,94.27
2022-10-19T20:39:49.255Z,95.39
2022-10-19T20:42:17.016Z,95.53
2022-10-19T20:44:43.902Z,95.59
2022-10-19T20:47:10.578Z,95.28
2022-10-19T20:49:37.044Z,93.68
2022-10-19T20:52:04.146Z,93.89
2022-10-19T20:54:30.720Z,93.43
2022-10-19T20:56:57.599Z,94.46
2022-10-19T20:59:27.790Z,93.90
2022-10-19T21:01:56.840Z,94.13
2022-10-19T21:04:25.544Z,93.93
2022-10-19T21:06:53.006Z,94.91
2022-10-19T21:09:22.376Z,95.70
2022-10-19T21:11:50.678Z,96.21
2022-10-19T21:14:22.408Z,95.85
2022-10-19T21:16:52.196Z,96.51
2022-10-19T21:19:22.098Z,95.40
2022-10-19T21:21:51.728Z,95.42
2022-10-19T21:24:23.730Z,94.26
2022-10-19T21:29:21.871Z,93.11
2022-10-19T21:31:50.127Z,93.98
2022-10-19T21:34:20.194Z,93.32
2022-10-19T21:36:47.322Z,93.31
2022-10-19T21:39:14.016Z,93.04
2022-10-19T21:41:40.538Z,93.22
2022-10-19T21:44:10.171Z,93.98
2022-10-19T21:46:36.543Z,95.45
2022-10-19T21:49:03.570Z,95.56
2022-10-19T21:51:37.557Z,96.47
2022-10-19T21:54:05.816Z,96.41
2022-10-19T21:56:33.658Z,96.04
2022-10-19T21:59:02.599Z,96.37
2022-10-19T22:01:30.367Z,96.52
2022-10-19T22:03:58.740Z,96.83
2022-10-19T22:06:27.656Z,96.30
2022-10-19T22:08:54.329Z,95.84
2022-10-19T22:11:21.297Z,95.73
2022-10-19T22:13:47.860Z,95.80
2022-10-19T22:16:19.348Z,95.85
2022-10-19T22:18:46.830Z,95.75
2022-10-19T22:21:16.269Z,95.99
2022-10-19T22:23:43.224Z,96.24
2022-10-19T22:26:18.071Z,95.57
2022-10-19T22:28:44.830Z,95.08
2022-10-19T22:31:12.377Z,94.63
2022-10-19T22:33:39.429Z,95.43
2022-10-19T22:36:07.998Z,94.85
2022-10-19T22:38:35.347Z,94.11
2022-10-19T22:41:01.787Z,94.63
2022-10-19T22:43:28.230Z,94.64
2022-10-19T22:45:54.605Z,94.75
2022-10-19T22:48:21.094Z,94.42
2022-10-19T22:50:47.547Z,94.71
2022-10-19T22:53:13.943Z,95.36
2022-10-19T22:55:40.356Z,94.93
2022-10-19T22:58:08.000Z,95.30
2022-10-19T23:00:34.426Z,95.56
2022-10-19T23:03:00.903Z,95.38
2022-10-19T23:05:27.254Z,95.98
2022-10-19T23:07:53.615Z,95.64
2022-10-19T23:10:20.130Z,95.59
2022-10-19T23:12:53.990Z,96.34
2022-10-19T23:15:21.175Z,96.02
2022-10-19T23:17:47.892Z,95.91
2022-10-19T23:20:15.765Z,96.59
2022-10-19T23:22:42.132Z,97.08
2022-10-19T23:25:09.176Z,97.02
2022-10-19T23:27:35.819Z,96.88
2022-10-19T23:30:03.916Z,97.09
2022-10-19T23:32:30.300Z,97.35
2022-10-19T23:34:56.833Z,97.32
2022-10-19T23:37:23.204Z,96.77
2022-10-19T23:39:49.665Z,97.50
2022-10-19T23:42:16.139Z,96.99
2022-10-19T23:44:42.618Z,96.99
2022-10-19T23:47:08.994Z,96.86
2022-10-19T23:49:35.357Z,97.42
2022-10-19T23:52:01.827Z,97.79
2022-10-19T23:54:28.195Z,98.45
2022-10-19T23:56:54.583Z,98.68
2022-10-19T23:59:21.033Z,99.19
